Terminal Aerodrome Forecast
Issued by NWS

Home | Current Version | Previous Version | Text Only | Print | Product List | Glossary Off
Versions: 1 2 3 4 5 6 7 8 9 10 11 12 13 14 15 16 17 18 19 20 21 22 23 24 25 26

000
FTUS43 KABR 190525
TAFMBG
TAF
KMBG 190525Z 1906/2006 09013KT P6SM BKN250
     FM190800 14011KT P6SM SCT090 OVC120 WS020/15045KT
     FM191000 14011KT P6SM VCSH BKN090 OVC120 WS020/19045KT
     FM191300 16018G27KT P6SM SCT100 BKN200
     FM192200 21014G23KT P6SM VCTS BKN050CB BKN150
     FM200000 26015G23KT P6SM FEW100 BKN200
     FM200300 31013KT P6SM OVC080=

USA.gov is the U.S. government's official web portal to all federal, state and local government web resources and services.